Aérodrome :
LOGIN :

S'inscrire | Disclaimer

   EN    FR    IT 

 










Légende :    VFR   VFR Marginal   IFR   IFR Intensif   IFR Très Intensif
Visi : 
Plafond : 
>= 8 km
>= 3000ft
5 à 8 km
1000 à 3000 ft
1500m à 5 km
500 à 1000 ft
800 à 1500m
200 à 500 ft
< 800m
< 200 ft
Symboles :   Orages  Brouillard  Fortes neiges  Fortes précipitations  Vent > 20 kt
SIGMETs :   Divers  Orages  Givrage  Turbulence  Onde Orograph.  Cendres Volcan.







- Altitude de l'aérodrome : 286 ft
- Code IATA : FFD


EGVA - RAF Fairford

DERNIER METAR :
  • 201841Z AUTO 02009KT M M OVC007 02/01 A2965 RMK AO2 SLP048 RVRNO $

METARs EXPIRÉS :
  • 201816Z AUTO 02008KT M M OVC008 03/01 A2963 RMK AO2 CIG 007 RWY09 SLP041 RVRNO $
  • 201756Z AUTO 03008KT M M BKN007 OVC022 03/01 A2961 RMK AO2 RAB16E27 BKN V OVC PRESRR SLP034 P0001 60006 T00250013 10046 20025 52050 RVRNO $
  • 201742Z AUTO 03009KT M M OVC007 03/02 A2959 RMK AO2 RAB16E27 SLP027 RVRNO $
  • 201727Z AUTO 03008KT M M OVC006 03/02 A2958 RMK AO2 RAB16E27 SLP024 RVRNO $
  • 201716Z AUTO 03006KT M -RA OVC006 03/02 A2957 RMK AO2 RAB16 OVC V BKN SLP020 RVRNO $
  • 201656Z AUTO 05005KT M M BKN007 OVC021 03/02 A2955 RMK AO2 RAE27 CIG 007V011 SLP014 P0000 T00270017 RVRNO $
  • 201652Z AUTO 04006KT M M BKN007 OVC021 03/02 A2955 RMK AO2 RAE27 CIG 007V011 SLP014 RVRNO $
  • 201642Z AUTO 05007KT M M SCT006 BKN011 BKN018 OVC023 03/02 A2954 RMK AO2 RAE27 CIG 007V011 SLP010 RVRNO $
  • 201632Z AUTO 05007KT M M OVC007 03/02 A2953 RMK AO2 RAE27 CIG 005V007 SLP007 RVRNO $
  • 201556Z AUTO 05008KT M -RA OVC005 03/02 A2950 RMK AO2 RAB42 PRESRR SLP997 P0001 T00330023 RVRNO $

Prévision TAF périmée.
Pas de NOTAMs connus pour ce terrain.
1 SIGMET publié pour la FIR London (EGTT) :
 
Turbulence forte
EGTT SIGMET 06 VALID 201500/201900 EGRR
EGTT LONDON FIR SEV TURB FCST S OF LINE N5000 W00200 - N5100 W00800 SFC/FL060 MOV S 15KT WKN=



MET'MAP, la Météo Aéronautique d'un coup d'oeil ! - Copyright ORBIFLY Décembre 2007 - Disclaimer

ORBIFLY MET'MAP TEAM :

Programmation & Développement : Alexandra Zaïnal
Conception & Développement : Baudouin d'Aumeries
Co-Programmation & Développement : Marc-Olivier Méhu
Soutien technique & logistique : Manuel Goepfert

Contact : metmap@orbifly.com




SOURCES & CREDITS :

   NOAA